sensor_id;sensor_type;location;lat;lon;timestamp;pressure;altitude;pressure_sealevel;temperature
20867;BMP280;10593;48.398;10.698;2024-03-06T00:00:07;96086.16;;;13.86
20867;BMP280;10593;48.398;10.698;2024-03-06T00:02:35;96081.88;;;13.85
20867;BMP280;10593;48.398;10.698;2024-03-06T00:05:02;96083.59;;;13.84
20867;BMP280;10593;48.398;10.698;2024-03-06T00:07:27;96081.03;;;13.84
20867;BMP280;10593;48.398;10.698;2024-03-06T00:09:53;96087.13;;;13.82
20867;BMP280;10593;48.398;10.698;2024-03-06T00:12:19;96082.81;;;13.82
20867;BMP280;10593;48.398;10.698;2024-03-06T00:14:44;96085.44;;;13.81
20867;BMP280;10593;48.398;10.698;2024-03-06T00:17:10;96096.63;;;13.81
20867;BMP280;10593;48.398;10.698;2024-03-06T00:19:36;96088.91;;;13.80
20867;BMP280;10593;48.398;10.698;2024-03-06T00:22:01;96087.22;;;13.79
20867;BMP280;10593;48.398;10.698;2024-03-06T00:24:27;96091.56;;;13.78
20867;BMP280;10593;48.398;10.698;2024-03-06T00:26:53;96095.88;;;13.78
20867;BMP280;10593;48.398;10.698;2024-03-06T00:29:19;96097.59;;;13.77
20867;BMP280;10593;48.398;10.698;2024-03-06T00:31:45;96090.72;;;13.78
20867;BMP280;10593;48.398;10.698;2024-03-06T00:34:11;96095.09;;;13.76
20867;BMP280;10593;48.398;10.698;2024-03-06T00:36:40;96094.22;;;13.75
20867;BMP280;10593;48.398;10.698;2024-03-06T00:39:06;96095.97;;;13.75
20867;BMP280;10593;48.398;10.698;2024-03-06T00:41:34;96096.88;;;13.74
20867;BMP280;10593;48.398;10.698;2024-03-06T00:44:00;96096.88;;;13.74
20867;BMP280;10593;48.398;10.698;2024-03-06T00:46:25;96099.50;;;13.72
20867;BMP280;10593;48.398;10.698;2024-03-06T00:48:51;96100.34;;;13.73
20867;BMP280;10593;48.398;10.698;2024-03-06T00:51:17;96096.09;;;13.72
20867;BMP280;10593;48.398;10.698;2024-03-06T00:53:43;96090.09;;;13.70
20867;BMP280;10593;48.398;10.698;2024-03-06T00:56:09;96095.25;;;13.70
20867;BMP280;10593;48.398;10.698;2024-03-06T00:58:35;96099.63;;;13.68
20867;BMP280;10593;48.398;10.698;2024-03-06T01:01:01;96093.66;;;13.67
20867;BMP280;10593;48.398;10.698;2024-03-06T01:03:26;96092.78;;;13.67
20867;BMP280;10593;48.398;10.698;2024-03-06T01:05:52;96091.09;;;13.66
20867;BMP280;10593;48.398;10.698;2024-03-06T01:08:19;96096.25;;;13.66
20867;BMP280;10593;48.398;10.698;2024-03-06T01:10:45;96096.25;;;13.66
20867;BMP280;10593;48.398;10.698;2024-03-06T01:13:11;96094.59;;;13.65
20867;BMP280;10593;48.398;10.698;2024-03-06T01:15:38;96092.88;;;13.64
20867;BMP280;10593;48.398;10.698;2024-03-06T01:18:04;96098.88;;;13.64
20867;BMP280;10593;48.398;10.698;2024-03-06T01:20:29;96092.03;;;13.63
20867;BMP280;10593;48.398;10.698;2024-03-06T01:22:55;96089.53;;;13.62
20867;BMP280;10593;48.398;10.698;2024-03-06T01:25:21;96093.00;;;13.61
20867;BMP280;10593;48.398;10.698;2024-03-06T01:27:49;96082.66;;;13.61
20867;BMP280;10593;48.398;10.698;2024-03-06T01:30:15;96086.19;;;13.58
20867;BMP280;10593;48.398;10.698;2024-03-06T01:32:41;96094.78;;;13.59
20867;BMP280;10593;48.398;10.698;2024-03-06T01:35:07;96095.69;;;13.58
20867;BMP280;10593;48.398;10.698;2024-03-06T01:37:32;96095.69;;;13.58
20867;BMP280;10593;48.398;10.698;2024-03-06T01:39:58;96091.38;;;13.57
20867;BMP280;10593;48.398;10.698;2024-03-06T01:42:24;96089.69;;;13.56
20867;BMP280;10593;48.398;10.698;2024-03-06T01:44:50;96087.97;;;13.56
20867;BMP280;10593;48.398;10.698;2024-03-06T01:47:16;96089.69;;;13.56
20867;BMP280;10593;48.398;10.698;2024-03-06T01:49:42;96093.19;;;13.55
20867;BMP280;10593;48.398;10.698;2024-03-06T01:52:11;96082.84;;;13.55
20867;BMP280;10593;48.398;10.698;2024-03-06T01:54:39;96084.59;;;13.54
20867;BMP280;10593;48.398;10.698;2024-03-06T01:57:06;96091.50;;;13.54
20867;BMP280;10593;48.398;10.698;2024-03-06T01:59:33;96084.63;;;13.53
20867;BMP280;10593;48.398;10.698;2024-03-06T02:02:01;96083.81;;;13.52
20867;BMP280;10593;48.398;10.698;2024-03-06T02:04:27;96083.84;;;13.51
20867;BMP280;10593;48.398;10.698;2024-03-06T02:06:53;96089.88;;;13.51
20867;BMP280;10593;48.398;10.698;2024-03-06T02:09:19;96086.44;;;13.51
20867;BMP280;10593;48.398;10.698;2024-03-06T02:11:45;96093.31;;;13.50
20867;BMP280;10593;48.398;10.698;2024-03-06T02:14:12;96089.91;;;13.50
20867;BMP280;10593;48.398;10.698;2024-03-06T02:16:38;96091.63;;;13.49
20867;BMP280;10593;48.398;10.698;2024-03-06T02:19:07;96094.22;;;13.49
20867;BMP280;10593;48.398;10.698;2024-03-06T02:21:34;96095.09;;;13.48
20867;BMP280;10593;48.398;10.698;2024-03-06T02:24:00;96082.28;;;13.47
20867;BMP280;10593;48.398;10.698;2024-03-06T02:26:26;96084.00;;;13.46
20867;BMP280;10593;48.398;10.698;2024-03-06T02:28:54;96083.16;;;13.46
20867;BMP280;10593;48.398;10.698;2024-03-06T02:31:21;96081.47;;;13.45
20867;BMP280;10593;48.398;10.698;2024-03-06T02:33:49;96077.19;;;13.44
20867;BMP280;10593;48.398;10.698;2024-03-06T02:36:16;96082.34;;;13.44
20867;BMP280;10593;48.398;10.698;2024-03-06T02:38:46;96088.41;;;13.43
20867;BMP280;10593;48.398;10.698;2024-03-06T02:41:12;96078.06;;;13.43
20867;BMP280;10593;48.398;10.698;2024-03-06T02:43:39;96079.88;;;13.41
20867;BMP280;10593;48.398;10.698;2024-03-06T02:46:05;96079.88;;;13.41
20867;BMP280;10593;48.398;10.698;2024-03-06T02:48:31;96076.50;;;13.39
20867;BMP280;10593;48.398;10.698;2024-03-06T02:50:57;96076.44;;;13.40
20867;BMP280;10593;48.398;10.698;2024-03-06T02:53:23;96068.75;;;13.39
20867;BMP280;10593;48.398;10.698;2024-03-06T02:55:50;96069.63;;;13.38
20867;BMP280;10593;48.398;10.698;2024-03-06T02:58:16;96061.94;;;13.36
20867;BMP280;10593;48.398;10.698;2024-03-06T03:00:43;96067.97;;;13.37
20867;BMP280;10593;48.398;10.698;2024-03-06T03:03:10;96055.94;;;13.36
20867;BMP280;10593;48.398;10.698;2024-03-06T03:05:38;96057.66;;;13.35
20867;BMP280;10593;48.398;10.698;2024-03-06T03:08:05;96060.25;;;13.35
20867;BMP280;10593;48.398;10.698;2024-03-06T03:10:31;96057.75;;;13.34
20867;BMP280;10593;48.398;10.698;2024-03-06T03:12:56;96056.06;;;13.33
20867;BMP280;10593;48.398;10.698;2024-03-06T03:15:22;96056.06;;;13.33
20867;BMP280;10593;48.398;10.698;2024-03-06T03:17:48;96052.69;;;13.31
20867;BMP280;10593;48.398;10.698;2024-03-06T03:20:13;96051.81;;;13.30
20867;BMP280;10593;48.398;10.698;2024-03-06T03:22:42;96059.59;;;13.29
20867;BMP280;10593;48.398;10.698;2024-03-06T03:25:10;96046.75;;;13.27
20867;BMP280;10593;48.398;10.698;2024-03-06T03:27:40;96056.22;;;13.27
20867;BMP280;10593;48.398;10.698;2024-03-06T03:30:10;96046.78;;;13.26
20867;BMP280;10593;48.398;10.698;2024-03-06T03:32:36;96058.00;;;13.25
20867;BMP280;10593;48.398;10.698;2024-03-06T03:35:04;96063.16;;;13.25
20867;BMP280;10593;48.398;10.698;2024-03-06T03:37:31;96056.31;;;13.24
20867;BMP280;10593;48.398;10.698;2024-03-06T03:39:56;96064.06;;;13.24
20867;BMP280;10593;48.398;10.698;2024-03-06T03:42:22;96064.09;;;13.22
20867;BMP280;10593;48.398;10.698;2024-03-06T03:44:48;96067.56;;;13.21
20867;BMP280;10593;48.398;10.698;2024-03-06T03:47:13;96060.72;;;13.20
20867;BMP280;10593;48.398;10.698;2024-03-06T03:49:39;96064.19;;;13.19
20867;BMP280;10593;48.398;10.698;2024-03-06T03:52:05;96064.19;;;13.19
20867;BMP280;10593;48.398;10.698;2024-03-06T03:54:30;96062.53;;;13.18
20867;BMP280;10593;48.398;10.698;2024-03-06T03:56:56;96065.97;;;13.19
20867;BMP280;10593;48.398;10.698;2024-03-06T03:59:25;96065.09;;;13.18
20867;BMP280;10593;48.398;10.698;2024-03-06T04:01:51;96066.84;;;13.18
20867;BMP280;10593;48.398;10.698;2024-03-06T04:04:17;96067.72;;;13.17
20867;BMP280;10593;48.398;10.698;2024-03-06T04:06:42;96070.34;;;13.15
20867;BMP280;10593;48.398;10.698;2024-03-06T04:09:08;96067.78;;;13.15
20867;BMP280;10593;48.398;10.698;2024-03-06T04:11:37;96075.53;;;13.14
20867;BMP280;10593;48.398;10.698;2024-03-06T04:14:06;96074.66;;;13.15
20867;BMP280;10593;48.398;10.698;2024-03-06T04:16:33;96078.13;;;13.14
20867;BMP280;10593;48.398;10.698;2024-03-06T04:18:59;96073.88;;;13.13
20867;BMP280;10593;48.398;10.698;2024-03-06T04:21:25;96075.53;;;13.14
20867;BMP280;10593;48.398;10.698;2024-03-06T04:23:50;96079.88;;;13.13
20867;BMP280;10593;48.398;10.698;2024-03-06T04:26:16;96077.34;;;13.12
20867;BMP280;10593;48.398;10.698;2024-03-06T04:28:43;96084.25;;;13.11
20867;BMP280;10593;48.398;10.698;2024-03-06T04:31:10;96083.38;;;13.11
20867;BMP280;10593;48.398;10.698;2024-03-06T04:33:36;96080.81;;;13.11
20867;BMP280;10593;48.398;10.698;2024-03-06T04:36:03;96086.81;;;13.11
20867;BMP280;10593;48.398;10.698;2024-03-06T04:38:29;96085.06;;;13.12
20867;BMP280;10593;48.398;10.698;2024-03-06T04:40:55;96092.81;;;13.12
20867;BMP280;10593;48.398;10.698;2024-03-06T04:43:20;96091.91;;;13.13
20867;BMP280;10593;48.398;10.698;2024-03-06T04:45:46;96093.69;;;13.12
20867;BMP280;10593;48.398;10.698;2024-03-06T04:48:12;96093.69;;;13.12
20867;BMP280;10593;48.398;10.698;2024-03-06T04:50:37;96092.81;;;13.12
20867;BMP280;10593;48.398;10.698;2024-03-06T04:53:03;96095.41;;;13.12
20867;BMP280;10593;48.398;10.698;2024-03-06T04:55:29;96101.44;;;13.11
20867;BMP280;10593;48.398;10.698;2024-03-06T04:57:56;96099.75;;;13.10
20867;BMP280;10593;48.398;10.698;2024-03-06T05:00:22;96104.91;;;13.10
20867;BMP280;10593;48.398;10.698;2024-03-06T05:02:48;96101.47;;;13.09
20867;BMP280;10593;48.398;10.698;2024-03-06T05:05:16;96105.81;;;13.09
20867;BMP280;10593;48.398;10.698;2024-03-06T05:07:42;96105.81;;;13.09
20867;BMP280;10593;48.398;10.698;2024-03-06T05:10:08;96117.81;;;13.10
20867;BMP280;10593;48.398;10.698;2024-03-06T05:12:34;96121.28;;;13.09
20867;BMP280;10593;48.398;10.698;2024-03-06T05:15:00;96119.53;;;13.09
20867;BMP280;10593;48.398;10.698;2024-03-06T05:17:26;96123.88;;;13.09
20867;BMP280;10593;48.398;10.698;2024-03-06T05:19:52;96126.47;;;13.07
20867;BMP280;10593;48.398;10.698;2024-03-06T05:22:17;96124.75;;;13.08
20867;BMP280;10593;48.398;10.698;2024-03-06T05:24:43;96139.38;;;13.07
20867;BMP280;10593;48.398;10.698;2024-03-06T05:27:10;96129.91;;;13.08
20867;BMP280;10593;48.398;10.698;2024-03-06T05:29:39;96123.97;;;13.06
20867;BMP280;10593;48.398;10.698;2024-03-06T05:32:05;96129.06;;;13.07
20867;BMP280;10593;48.398;10.698;2024-03-06T05:34:33;96135.97;;;13.07
20867;BMP280;10593;48.398;10.698;2024-03-06T05:37:00;96128.22;;;13.07
20867;BMP280;10593;48.398;10.698;2024-03-06T05:39:27;96126.53;;;13.06
20867;BMP280;10593;48.398;10.698;2024-03-06T05:41:55;96127.44;;;13.05
20867;BMP280;10593;48.398;10.698;2024-03-06T05:44:20;96126.56;;;13.04
20867;BMP280;10593;48.398;10.698;2024-03-06T05:46:47;96131.78;;;13.03
20867;BMP280;10593;48.398;10.698;2024-03-06T05:49:13;96134.34;;;13.03
20867;BMP280;10593;48.398;10.698;2024-03-06T05:51:39;96127.50;;;13.02
20867;BMP280;10593;48.398;10.698;2024-03-06T05:54:05;96137.81;;;13.02
20867;BMP280;10593;48.398;10.698;2024-03-06T05:56:34;96137.00;;;13.01
20867;BMP280;10593;48.398;10.698;2024-03-06T05:59:00;96137.03;;;13.00
20867;BMP280;10593;48.398;10.698;2024-03-06T06:01:30;96137.03;;;13.00
20867;BMP280;10593;48.398;10.698;2024-03-06T06:03:56;96148.22;;;12.99
20867;BMP280;10593;48.398;10.698;2024-03-06T06:06:22;96152.56;;;12.98
20867;BMP280;10593;48.398;10.698;2024-03-06T06:08:48;96148.28;;;12.97
20867;BMP280;10593;48.398;10.698;2024-03-06T06:11:14;96147.44;;;12.97
20867;BMP280;10593;48.398;10.698;2024-03-06T06:13:39;96155.16;;;12.97
20867;BMP280;10593;48.398;10.698;2024-03-06T06:16:06;96156.88;;;12.96
20867;BMP280;10593;48.398;10.698;2024-03-06T06:18:32;96156.03;;;12.97
20867;BMP280;10593;48.398;10.698;2024-03-06T06:20:58;96156.03;;;12.97
20867;BMP280;10593;48.398;10.698;2024-03-06T06:23:24;96166.38;;;12.96
20867;BMP280;10593;48.398;10.698;2024-03-06T06:25:50;96168.94;;;12.96
20867;BMP280;10593;48.398;10.698;2024-03-06T06:28:16;96172.44;;;12.95
20867;BMP280;10593;48.398;10.698;2024-03-06T06:30:42;96169.78;;;12.96
20867;BMP280;10593;48.398;10.698;2024-03-06T06:33:07;96172.44;;;12.95
20867;BMP280;10593;48.398;10.698;2024-03-06T06:35:34;96171.56;;;12.94
20867;BMP280;10593;48.398;10.698;2024-03-06T06:38:03;96184.53;;;12.93
20867;BMP280;10593;48.398;10.698;2024-03-06T06:40:30;96183.63;;;12.92
20867;BMP280;10593;48.398;10.698;2024-03-06T06:42:56;96182.78;;;12.92
20867;BMP280;10593;48.398;10.698;2024-03-06T06:45:22;96179.34;;;12.91
20867;BMP280;10593;48.398;10.698;2024-03-06T06:47:49;96187.09;;;12.93
20867;BMP280;10593;48.398;10.698;2024-03-06T06:50:15;96193.09;;;12.93
20867;BMP280;10593;48.398;10.698;2024-03-06T06:52:42;96191.38;;;12.94
20867;BMP280;10593;48.398;10.698;2024-03-06T06:55:08;96197.34;;;12.94
20867;BMP280;10593;48.398;10.698;2024-03-06T06:57:37;96193.88;;;12.95
20867;BMP280;10593;48.398;10.698;2024-03-06T07:00:05;96195.63;;;12.95
20867;BMP280;10593;48.398;10.698;2024-03-06T07:02:38;96189.59;;;12.96
20867;BMP280;10593;48.398;10.698;2024-03-06T07:05:08;96203.31;;;12.96
20867;BMP280;10593;48.398;10.698;2024-03-06T07:07:37;96201.59;;;12.97
20867;BMP280;10593;48.398;10.698;2024-03-06T07:10:04;96200.69;;;12.98
20867;BMP280;10593;48.398;10.698;2024-03-06T07:12:31;96204.16;;;12.97
20867;BMP280;10593;48.398;10.698;2024-03-06T07:14:58;96200.72;;;12.96
20867;BMP280;10593;48.398;10.698;2024-03-06T07:17:25;96201.59;;;12.97
20867;BMP280;10593;48.398;10.698;2024-03-06T07:19:50;96205.03;;;12.97
20867;BMP280;10593;48.398;10.698;2024-03-06T07:22:18;96211.03;;;12.98
20867;BMP280;10593;48.398;10.698;2024-03-06T07:24:44;96213.59;;;12.98
20867;BMP280;10593;48.398;10.698;2024-03-06T07:27:10;96206.72;;;12.98
20867;BMP280;10593;48.398;10.698;2024-03-06T07:29:36;96205.84;;;12.98
20867;BMP280;10593;48.398;10.698;2024-03-06T07:32:03;96204.97;;;12.99
20867;BMP280;10593;48.398;10.698;2024-03-06T07:34:31;96209.25;;;13.00
20867;BMP280;10593;48.398;10.698;2024-03-06T07:36:57;96210.94;;;13.01
20867;BMP280;10593;48.398;10.698;2024-03-06T07:39:26;96219.47;;;13.03
20867;BMP280;10593;48.398;10.698;2024-03-06T07:41:52;96216.06;;;13.02
20867;BMP280;10593;48.398;10.698;2024-03-06T07:44:18;96218.59;;;13.04
20867;BMP280;10593;48.398;10.698;2024-03-06T07:46:45;96217.72;;;13.05
20867;BMP280;10593;48.398;10.698;2024-03-06T07:49:11;96232.31;;;13.06
20867;BMP280;10593;48.398;10.698;2024-03-06T07:51:36;96225.44;;;13.05
20867;BMP280;10593;48.398;10.698;2024-03-06T07:54:02;96227.13;;;13.06
20867;BMP280;10593;48.398;10.698;2024-03-06T07:56:31;96227.13;;;13.06
20867;BMP280;10593;48.398;10.698;2024-03-06T07:58:56;96235.69;;;13.08
20867;BMP280;10593;48.398;10.698;2024-03-06T08:01:23;96234.78;;;13.09
20867;BMP280;10593;48.398;10.698;2024-03-06T08:03:49;96234.78;;;13.09
20867;BMP280;10593;48.398;10.698;2024-03-06T08:06:15;96234.78;;;13.09
20867;BMP280;10593;48.398;10.698;2024-03-06T08:08:44;96245.91;;;13.11
20867;BMP280;10593;48.398;10.698;2024-03-06T08:11:11;96240.75;;;13.11
20867;BMP280;10593;48.398;10.698;2024-03-06T08:13:37;96239.06;;;13.10
20867;BMP280;10593;48.398;10.698;2024-03-06T08:16:05;96248.47;;;13.11
20867;BMP280;10593;48.398;10.698;2024-03-06T08:18:31;96245.91;;;13.11
20867;BMP280;10593;48.398;10.698;2024-03-06T08:20:57;96248.47;;;13.11
20867;BMP280;10593;48.398;10.698;2024-03-06T08:23:23;96238.16;;;13.11
20867;BMP280;10593;48.398;10.698;2024-03-06T08:25:50;96239.88;;;13.10
20867;BMP280;10593;48.398;10.698;2024-03-06T08:28:17;96253.63;;;13.12
20867;BMP280;10593;48.398;10.698;2024-03-06T08:30:42;96246.75;;;13.11
20867;BMP280;10593;48.398;10.698;2024-03-06T08:33:10;96251.94;;;13.11
20867;BMP280;10593;48.398;10.698;2024-03-06T08:35:36;96249.34;;;13.11
20867;BMP280;10593;48.398;10.698;2024-03-06T08:38:01;96255.31;;;13.13
20867;BMP280;10593;48.398;10.698;2024-03-06T08:40:42;96250.97;;;13.14
20867;BMP280;10593;48.398;10.698;2024-03-06T08:43:12;96250.97;;;13.14
20867;BMP280;10593;48.398;10.698;2024-03-06T08:45:38;96256.13;;;13.14
20867;BMP280;10593;48.398;10.698;2024-03-06T08:48:04;96256.09;;;13.15
20867;BMP280;10593;48.398;10.698;2024-03-06T08:50:31;96260.38;;;13.16
20867;BMP280;10593;48.398;10.698;2024-03-06T08:52:57;96261.19;;;13.17
20867;BMP280;10593;48.398;10.698;2024-03-06T08:55:22;96261.16;;;13.18
20867;BMP280;10593;48.398;10.698;2024-03-06T08:57:48;96266.31;;;13.20
20867;BMP280;10593;48.398;10.698;2024-03-06T09:00:16;96271.41;;;13.21
20867;BMP280;10593;48.398;10.698;2024-03-06T09:02:43;96262.78;;;13.22
20867;BMP280;10593;48.398;10.698;2024-03-06T09:05:10;96273.06;;;13.24
20867;BMP280;10593;48.398;10.698;2024-03-06T09:07:37;96271.28;;;13.26
20867;BMP280;10593;48.398;10.698;2024-03-06T09:10:10;96281.59;;;13.26
20867;BMP280;10593;48.398;10.698;2024-03-06T09:12:36;96279.81;;;13.28
20867;BMP280;10593;48.398;10.698;2024-03-06T09:15:04;96276.31;;;13.30
20867;BMP280;10593;48.398;10.698;2024-03-06T09:17:30;96276.28;;;13.32
20867;BMP280;10593;48.398;10.698;2024-03-06T09:19:56;96284.81;;;13.34
20867;BMP280;10593;48.398;10.698;2024-03-06T09:22:22;96288.22;;;13.36
20867;BMP280;10593;48.398;10.698;2024-03-06T09:24:48;96288.22;;;13.36
20867;BMP280;10593;48.398;10.698;2024-03-06T09:27:15;96289.91;;;13.37
20867;BMP280;10593;48.398;10.698;2024-03-06T09:29:41;96292.44;;;13.38
20867;BMP280;10593;48.398;10.698;2024-03-06T09:32:06;96288.13;;;13.39
20867;BMP280;10593;48.398;10.698;2024-03-06T09:34:32;96294.97;;;13.40
20867;BMP280;10593;48.398;10.698;2024-03-06T09:36:58;96294.97;;;13.40
20867;BMP280;10593;48.398;10.698;2024-03-06T09:39:24;96296.66;;;13.41
20867;BMP280;10593;48.398;10.698;2024-03-06T09:41:50;96294.97;;;13.40
20867;BMP280;10593;48.398;10.698;2024-03-06T09:44:17;96296.72;;;13.39
20867;BMP280;10593;48.398;10.698;2024-03-06T09:46:45;96294.97;;;13.40
20867;BMP280;10593;48.398;10.698;2024-03-06T09:49:17;96301.88;;;13.39
20867;BMP280;10593;48.398;10.698;2024-03-06T09:51:48;96300.13;;;13.40
20867;BMP280;10593;48.398;10.698;2024-03-06T09:54:19;96307.88;;;13.40
20867;BMP280;10593;48.398;10.698;2024-03-06T09:56:47;96318.16;;;13.41
20867;BMP280;10593;48.398;10.698;2024-03-06T09:59:14;96311.25;;;13.42
20867;BMP280;10593;48.398;10.698;2024-03-06T10:01:57;96309.53;;;13.42
20867;BMP280;10593;48.398;10.698;2024-03-06T10:04:27;96311.22;;;13.43
20867;BMP280;10593;48.398;10.698;2024-03-06T10:06:56;96310.31;;;13.46
20867;BMP280;10593;48.398;10.698;2024-03-06T10:09:23;96316.28;;;13.46
20867;BMP280;10593;48.398;10.698;2024-03-06T10:11:50;96317.16;;;13.47
20867;BMP280;10593;48.398;10.698;2024-03-06T10:14:18;96314.50;;;13.48
20867;BMP280;10593;48.398;10.698;2024-03-06T10:16:58;96319.66;;;13.50
20867;BMP280;10593;48.398;10.698;2024-03-06T10:19:27;96313.69;;;13.48
20867;BMP280;10593;48.398;10.698;2024-03-06T10:21:55;96311.94;;;13.48
20867;BMP280;10593;48.398;10.698;2024-03-06T10:24:24;96312.72;;;13.50
20867;BMP280;10593;48.398;10.698;2024-03-06T10:26:52;96328.16;;;13.53
20867;BMP280;10593;48.398;10.698;2024-03-06T10:29:22;96319.47;;;13.56
20867;BMP280;10593;48.398;10.698;2024-03-06T10:31:52;96314.22;;;13.59
20867;BMP280;10593;48.398;10.698;2024-03-06T10:34:24;96320.19;;;13.61
20867;BMP280;10593;48.398;10.698;2024-03-06T10:37:01;96319.31;;;13.62
20867;BMP280;10593;48.398;10.698;2024-03-06T10:39:33;96320.06;;;13.65
20867;BMP280;10593;48.398;10.698;2024-03-06T10:42:02;96319.13;;;13.68
20867;BMP280;10593;48.398;10.698;2024-03-06T10:44:33;96322.47;;;13.71
20867;BMP280;10593;48.398;10.698;2024-03-06T10:47:05;96324.13;;;13.74
20867;BMP280;10593;48.398;10.698;2024-03-06T10:49:32;96323.13;;;13.78
20867;BMP280;10593;48.398;10.698;2024-03-06T10:52:01;96330.84;;;13.79
20867;BMP280;10593;48.398;10.698;2024-03-06T10:54:30;96337.59;;;13.83
20867;BMP280;10593;48.398;10.698;2024-03-06T10:56:58;96331.53;;;13.86
20867;BMP280;10593;48.398;10.698;2024-03-06T10:59:29;96330.66;;;13.85
20867;BMP280;10593;48.398;10.698;2024-03-06T11:01:56;96328.03;;;13.87
20867;BMP280;10593;48.398;10.698;2024-03-06T11:04:26;96328.88;;;13.87
20867;BMP280;10593;48.398;10.698;2024-03-06T11:06:57;96322.88;;;13.87
20867;BMP280;10593;48.398;10.698;2024-03-06T11:09:26;96334.91;;;13.88
20867;BMP280;10593;48.398;10.698;2024-03-06T11:11:53;96335.72;;;13.88
20867;BMP280;10593;48.398;10.698;2024-03-06T11:14:24;96328.78;;;13.90
20867;BMP280;10593;48.398;10.698;2024-03-06T11:19:29;96331.22;;;13.95
20867;BMP280;10593;48.398;10.698;2024-03-06T11:21:55;96329.44;;;13.97
20867;BMP280;10593;48.398;10.698;2024-03-06T11:24:32;96328.50;;;13.99
20867;BMP280;10593;48.398;10.698;2024-03-06T11:27:00;96324.16;;;14.01
20867;BMP280;10593;48.398;10.698;2024-03-06T11:32:57;96331.88;;;14.03
20867;BMP280;10593;48.398;10.698;2024-03-06T11:35:23;96328.41;;;14.02
20867;BMP280;10593;48.398;10.698;2024-03-06T11:37:50;96337.03;;;14.03
20867;BMP280;10593;48.398;10.698;2024-03-06T11:40:25;96335.28;;;14.03
20867;BMP280;10593;48.398;10.698;2024-03-06T11:42:51;96331.06;;;14.01
20867;BMP280;10593;48.398;10.698;2024-03-06T11:45:19;96331.06;;;14.01
20867;BMP280;10593;48.398;10.698;2024-03-06T11:48:02;96336.22;;;14.01
20867;BMP280;10593;48.398;10.698;2024-03-06T11:50:29;96331.13;;;13.98
20867;BMP280;10593;48.398;10.698;2024-03-06T11:52:57;96331.13;;;13.98
20867;BMP280;10593;48.398;10.698;2024-03-06T11:55:23;96337.19;;;13.97
20867;BMP280;10593;48.398;10.698;2024-03-06T11:57:52;96336.28;;;13.98
20867;BMP280;10593;48.398;10.698;2024-03-06T12:00:24;96335.47;;;13.97
20867;BMP280;10593;48.398;10.698;2024-03-06T12:02:51;96339.75;;;13.98
20867;BMP280;10593;48.398;10.698;2024-03-06T12:05:18;96343.19;;;13.99
20867;BMP280;10593;48.398;10.698;2024-03-06T12:07:50;96333.69;;;13.99
20867;BMP280;10593;48.398;10.698;2024-03-06T12:10:17;96343.09;;;14.02
20867;BMP280;10593;48.398;10.698;2024-03-06T12:12:44;96330.09;;;14.03
20867;BMP280;10593;48.398;10.698;2024-03-06T12:15:14;96327.47;;;14.06
20867;BMP280;10593;48.398;10.698;2024-03-06T12:17:50;96335.13;;;14.08
20867;BMP280;10593;48.398;10.698;2024-03-06T12:20:18;96332.53;;;14.09
20867;BMP280;10593;48.398;10.698;2024-03-06T12:22:52;96333.31;;;14.11
20867;BMP280;10593;48.398;10.698;2024-03-06T12:25:26;96335.00;;;14.12
20867;BMP280;10593;48.398;10.698;2024-03-06T12:27:54;96336.69;;;14.13
20867;BMP280;10593;48.398;10.698;2024-03-06T12:30:22;96335.78;;;14.16
20867;BMP280;10593;48.398;10.698;2024-03-06T12:35:25;96331.47;;;14.16
20867;BMP280;10593;48.398;10.698;2024-03-06T12:37:52;96336.59;;;14.18
20867;BMP280;10593;48.398;10.698;2024-03-06T12:40:19;96335.72;;;14.19
20867;BMP280;10593;48.398;10.698;2024-03-06T12:42:44;96335.59;;;14.22
20867;BMP280;10593;48.398;10.698;2024-03-06T12:45:12;96337.28;;;14.23
20867;BMP280;10593;48.398;10.698;2024-03-06T12:47:45;96338.09;;;14.25
20867;BMP280;10593;48.398;10.698;2024-03-06T12:50:13;96333.75;;;14.27
20867;BMP280;10593;48.398;10.698;2024-03-06T12:52:40;96327.63;;;14.29
20867;BMP280;10593;48.398;10.698;2024-03-06T12:55:07;96331.84;;;14.32
20867;BMP280;10593;48.398;10.698;2024-03-06T12:57:33;96327.47;;;14.34
20867;BMP280;10593;48.398;10.698;2024-03-06T13:00:00;96323.09;;;14.36
20867;BMP280;10593;48.398;10.698;2024-03-06T13:02:25;96325.66;;;14.37
20867;BMP280;10593;48.398;10.698;2024-03-06T13:04:51;96327.34;;;14.38
20867;BMP280;10593;48.398;10.698;2024-03-06T13:07:18;96327.31;;;14.40
20867;BMP280;10593;48.398;10.698;2024-03-06T13:09:43;96317.75;;;14.42
20867;BMP280;10593;48.398;10.698;2024-03-06T13:12:10;96325.44;;;14.43
20867;BMP280;10593;48.398;10.698;2024-03-06T13:14:36;96320.25;;;14.45
20867;BMP280;10593;48.398;10.698;2024-03-06T13:17:02;96324.50;;;14.46
20867;BMP280;10593;48.398;10.698;2024-03-06T13:19:28;96320.19;;;14.46
20867;BMP280;10593;48.398;10.698;2024-03-06T13:21:54;96321.91;;;14.47
20867;BMP280;10593;48.398;10.698;2024-03-06T13:24:20;96333.91;;;14.48
20867;BMP280;10593;48.398;10.698;2024-03-06T13:26:46;96327.91;;;14.48
20867;BMP280;10593;48.398;10.698;2024-03-06T13:29:13;96334.75;;;14.49
20867;BMP280;10593;48.398;10.698;2024-03-06T13:31:39;96333.06;;;14.48
20867;BMP280;10593;48.398;10.698;2024-03-06T13:34:05;96334.81;;;14.47
20867;BMP280;10593;48.398;10.698;2024-03-06T13:36:30;96338.31;;;14.46
20867;BMP280;10593;48.398;10.698;2024-03-06T13:38:56;96333.13;;;14.46
20867;BMP280;10593;48.398;10.698;2024-03-06T13:41:23;96339.91;;;14.49
20867;BMP280;10593;48.398;10.698;2024-03-06T13:43:49;96327.91;;;14.48
20867;BMP280;10593;48.398;10.698;2024-03-06T13:46:15;96335.66;;;14.48
20867;BMP280;10593;48.398;10.698;2024-03-06T13:48:40;96336.50;;;14.48
20867;BMP280;10593;48.398;10.698;2024-03-06T13:51:06;96339.03;;;14.50
20867;BMP280;10593;48.398;10.698;2024-03-06T13:53:32;96345.88;;;14.51
20867;BMP280;10593;48.398;10.698;2024-03-06T13:55:58;96339.00;;;14.51
20867;BMP280;10593;48.398;10.698;2024-03-06T13:58:24;96342.38;;;14.53
20867;BMP280;10593;48.398;10.698;2024-03-06T14:00:50;96349.22;;;14.54
20867;BMP280;10593;48.398;10.698;2024-03-06T14:03:16;96338.00;;;14.55